Torino / Aeritalia Airport LIMA

Flugplatz Daten

Name: Torino / Aeritalia Airport

Ident: LIMA

Lat: 45,08639908

Long: 7,60337019

Platzhöhe: 943 ft

IataCode:

City: Torino

Metar

2021/12/03 18:00
CYQH 031800Z 15003KT 130V190 3SM -SN OVC035 M18/M20 A2999 RMK SC8 CLIMAT -17.2/-20.1/1.2 CM/1.4 MWE 44048 SLP230

Taf

Gewünschte Webcam nicht vorhanden? Dann fügen Sie eine hinzu. Sie wird dann so schnell wie möglich freigeschaltet
Url: Title: